x

Buoy F01 - West Penobscot Bay (44033) Wave Buoy

3:04pm - Tue 29th Jul 2014 All times are EDT. -4 hours from GMT.

  • Sig Wave height 3.6ft
  • Peak Period 8s
  • Wind
    11mph, 13mph gusts
  • Sea Temp 58°f
  • Air Temp 61°f
  • Sea Pressure 1008mb
  • Buoy F01 - West Penobscot Bay
  • Buoy F01 - West Penobscot Bay

More Historic Weather Station data

Upgrade to MSW Pro to gain access to the past 30 days of data for over 8000 Wavebouys and Weather Stations around the globe.

Join Pro

Comparision Forecast

View Surf forecast
   
Tue 07/29 3:04pm 3.5ft 8s 11 13 mph 1008mb 58f 61f
2:04pm 3.5ft 8s 4 7 mph 1007.1mb 58f 67f
1:04pm 3.5ft 8s 2 4 mph 1006.6mb 58f 65f
12:04pm 3ft 6s 4
mph
1005.9mb 59f 67f
11:04am 3ft 6s 4 7 mph 1005.4mb 59f 65f
10:04am 3.5ft 6s 7 9 mph 1004.7mb 59f 64f
9:04am 3ft 6s 7 9 mph 1003.7mb 59f 64f
8:04am 2.5ft 6s 7 9 mph 1002.8mb 59f 63f
7:04am 2.5ft 6s 9
mph
1001.5mb 58f 60f
6:04am 3ft 6s 7
mph
1001mb 59f 60f
5:04am 3ft 8s 7 9 mph 1000.3mb 56f 59f
4:04am 2.5ft 6s 9
mph
999.3mb 55f 59f
3:04am 3.5ft 6s 9
mph
998.4mb 55f 57f
2:04am 3.5ft 6s 9 11 mph 997.8mb 55f 59f
1:04am 3.5ft 6s 11 16 mph 997.3mb 55f 59f
12:04am 2.5ft 6s 11
mph
997.3mb 55f 59f
Mon 07/28 11:04pm 2.5ft 5s 7
mph
997.3mb 55f 58f
10:04pm 2.5ft 5s 13
mph
997.3mb 55f 60f
9:04pm 2.5ft 5s 13 16 mph 997.5mb 55f 60f
8:04pm 3ft 5s 11 13 mph 998mb 55f 59f
7:04pm 3ft 5s 11 13 mph 998.5mb 55f 60f
6:04pm 3ft 5s 13 16 mph 998.7mb 56f 59f
5:04pm 3ft 5s 13 16 mph 998.9mb 55f 60f
4:04pm 2.5ft 4s 13 16 mph 999.5mb 55f 61f
3:04pm 2ft 5s 16 22 mph 999.7mb 55f 60f
2:04pm 1.3ft 3s 9 13 mph 1000.6mb 55f 60f
1:04pm 2ft 5s 13 18 mph 1001.8mb 55f 61f
12:04pm 1.6ft 6s 13 16 mph 1002.6mb 56f 59f
11:04am 1.6ft 6s 4 7 mph 1002.9mb 56f 59f
10:04am 2ft 5s 9
mph
1003.7mb 56f 58f
9:04am 2ft 5s 9 11 mph 1004.2mb 56f 59f
8:04am 2ft 5s 7
mph
1003.9mb 56f 59f
7:04am 2ft 5s 7 9 mph 1004.4mb 56f 59f
6:04am 1.6ft 5s 9
mph
1004.3mb 56f 59f
5:04am 2ft 5s 7
mph
1004mb 56f 59f
12:04am 2.5ft 5s 7 9 mph 1004.3mb 55f 59f
Sun 07/27 11:04pm 2.5ft 5s 11
mph
1004.7mb 56f 59f
10:04pm 3ft 5s 11 13 mph 1005mb 56f 59f
9:04pm 2.5ft 4s 11 13 mph 1005.6mb 56f 61f
8:04pm 3ft 5s 9 11 mph 1005.6mb 56f 60f
7:04pm 2.5ft 5s 7 9 mph 1006.1mb 56f 59f
6:04pm 2.5ft 5s 11 13 mph 1006.1mb 56f 60f
5:04pm 2.5ft 4s 13 16 mph 1006.4mb 57f 61f
4:04pm 2.5ft 5s 16 18 mph 1006.7mb 58f 61f
3:04pm 2.5ft 5s 16 18 mph 1007mb 58f 61f
2:04pm 2.5ft 8s 13 16 mph 1007.2mb 58f 61f
1:04pm 2.5ft 5s 13 16 mph 1007.5mb 58f 62f
12:04pm 2ft 8s 13
mph
1007.7mb 59f 62f
11:04am 2ft 8s 9 11 mph 1008mb 60f 61f
10:04am 1.6ft 8s 7 9 mph 1008.8mb 59f 60f
9:04am 2ft 5s 7
mph
1008.9mb 58f 60f
8:04am 2ft 5s 4 7 mph 1009.2mb 58f 60f
Sat 07/26 11:04pm 2.5ft 5s 11
mph
1009.9mb 60f 62f
10:04pm 2.5ft 8s 9
mph
1010.4mb 60f 62f
9:04pm 2ft 4s 11
mph
1010.3mb 60f 63f
8:04pm 1.6ft 8s 4
mph
1009.9mb 62f 63f
7:04pm 1.6ft 8s 7
mph
1010.3mb 62f 63f
6:04pm 1.6ft 8s 7 9 mph 1010.5mb 62f 64f
5:04pm 1.6ft 8s 7 9 mph 1010.7mb 62f 62f
2:04pm 1.6ft 8s 13 16 mph 1011.5mb 63f 63f
1:04pm 1.6ft 8s 11 13 mph 1011.5mb 63f 62f
12:04pm 1.3ft 8s 9 11 mph 1011.9mb 60f 63f
11:04am 1.6ft 8s 11
mph
1012.4mb 60f 62f
10:04am 1.3ft 8s 11 13 mph 1012.6mb 62f 62f
9:04am 1.3ft 8s 7 9 mph 1012.6mb 61f 62f
8:04am 1.3ft 8s 7 9 mph 1012.7mb 62f 62f
7:04am 1ft 5s 7 9 mph 1012.7mb 63f 63f
6:04am 1.3ft 8s 7 9 mph 1012.4mb 63f 63f
5:04am 1.3ft 8s 7 9 mph 1012.1mb 63f 62f
4:04am 1.3ft 8s 9
mph
1011.9mb 63f 62f
3:04am 1.3ft 6s 7
mph
1011.6mb 63f 63f
2:04am 1.3ft 11s 4
mph
1011.7mb 63f 62f
1:04am 1.3ft 6s 4 7 mph 1012mb 61f 61f
12:04am 1.3ft 6s 4
mph
1011.9mb 60f 62f
Fri 07/25 11:04pm 1.6ft 8s 7
mph
1011.6mb 60f 62f
10:04pm 1.3ft 8s 9 11 mph 1011.5mb 61f 63f
9:04pm 1.6ft 8s 11
mph
1011.3mb 61f 64f